createdAt,value
2018-07-07T00:04:31.324Z,101537.73
2018-07-07T00:09:34.513Z,101537.58
2018-07-07T00:14:37.636Z,101541.33
2018-07-07T00:19:40.956Z,101549.44
2018-07-07T00:24:44.103Z,101547.10
2018-07-07T00:29:47.220Z,101544.91
2018-07-07T00:34:51.039Z,101549.67
2018-07-07T00:39:54.320Z,101552.70
2018-07-07T00:44:57.488Z,101556.41
2018-07-07T00:50:00.655Z,101555.37
2018-07-07T00:55:04.784Z,101569.80
2018-07-07T01:00:07.956Z,101567.75
2018-07-07T01:05:22.321Z,101575.02
2018-07-07T01:10:25.438Z,101564.22
2018-07-07T01:15:28.665Z,101565.90
2018-07-07T01:20:31.979Z,101563.72
2018-07-07T01:25:35.103Z,101564.84
2018-07-07T01:30:38.299Z,101570.56
2018-07-07T01:35:41.697Z,101568.52
2018-07-07T01:40:44.864Z,101565.11
2018-07-07T01:45:48.010Z,101567.06
2018-07-07T01:50:51.213Z,101564.69
2018-07-07T01:55:54.339Z,101572.16
2018-07-07T02:00:57.505Z,101569.94
2018-07-07T02:06:00.660Z,101568.91
2018-07-07T02:11:04.016Z,101566.22
2018-07-07T02:16:07.144Z,101562.73
2018-07-07T02:21:10.253Z,101569.90
2018-07-07T02:26:13.499Z,101570.62
2018-07-07T02:31:16.603Z,101572.73
2018-07-07T02:36:19.726Z,101572.13
2018-07-07T02:41:23.014Z,101575.13
2018-07-07T02:46:26.287Z,101573.36
2018-07-07T02:51:29.399Z,101578.97
2018-07-07T02:56:32.560Z,101583.92
2018-07-07T03:01:35.693Z,101580.97
2018-07-07T03:06:38.884Z,101576.95
2018-07-07T03:11:42.014Z,101580.09
2018-07-07T03:16:45.162Z,101586.41
2018-07-07T03:21:48.444Z,101584.58
2018-07-07T03:26:51.550Z,101596.56
2018-07-07T03:31:54.641Z,101591.22
2018-07-07T03:36:57.787Z,101596.36
2018-07-07T03:42:01.007Z,101602.43
2018-07-07T03:47:04.498Z,101600.27
2018-07-07T03:52:07.630Z,101604.13
2018-07-07T03:57:10.744Z,101604.80
2018-07-07T04:02:13.936Z,101608.42
2018-07-07T04:07:17.090Z,101614.00
2018-07-07T04:12:20.174Z,101615.58
2018-07-07T04:17:23.283Z,101613.89
2018-07-07T04:22:26.520Z,101612.22
2018-07-07T04:27:29.665Z,101615.59
2018-07-07T04:32:32.932Z,101623.09
2018-07-07T04:37:36.060Z,101614.32
2018-07-07T04:42:39.177Z,101625.30
2018-07-07T04:47:42.295Z,101618.66
2018-07-07T04:52:45.427Z,101620.50
2018-07-07T04:57:48.669Z,101621.44
2018-07-07T05:02:51.775Z,101629.77
2018-07-07T05:07:55.198Z,101636.33
2018-07-07T05:12:58.370Z,101641.95
2018-07-07T05:18:01.559Z,101642.05
2018-07-07T05:23:04.671Z,101646.83
2018-07-07T05:28:07.871Z,101652.42
2018-07-07T05:33:10.999Z,101655.31
2018-07-07T05:38:14.221Z,101666.02
2018-07-07T05:43:17.399Z,101655.18
2018-07-07T05:48:21.009Z,101642.73
2018-07-07T05:53:24.401Z,101649.73
2018-07-07T05:58:27.648Z,101649.52
2018-07-07T06:03:30.936Z,101657.78
2018-07-07T06:08:34.241Z,101651.17
2018-07-07T06:13:37.404Z,101638.45
2018-07-07T06:18:40.605Z,101645.08
2018-07-07T06:23:43.773Z,101643.20
2018-07-07T06:28:46.866Z,101645.34
2018-07-07T06:33:50.000Z,101637.69
2018-07-07T06:38:53.099Z,101649.57
2018-07-07T06:43:56.275Z,101660.15
2018-07-07T06:48:59.409Z,101649.30
2018-07-07T06:54:02.662Z,101655.70
2018-07-07T06:59:07.095Z,101647.37
2018-07-07T07:04:10.535Z,101651.36
2018-07-07T07:09:13.688Z,101649.57
2018-07-07T07:14:16.786Z,101641.41
2018-07-07T07:19:19.906Z,101646.69
2018-07-07T07:24:23.047Z,101643.75
2018-07-07T07:29:26.299Z,101639.33
2018-07-07T07:34:29.474Z,101641.01
2018-07-07T07:39:32.854Z,101634.86
2018-07-07T07:44:35.970Z,101626.95
2018-07-07T07:49:39.180Z,101630.15
2018-07-07T07:54:42.336Z,101632.82
2018-07-07T07:59:45.466Z,101638.16
2018-07-07T08:04:48.601Z,101637.20
2018-07-07T08:09:51.699Z,101626.97
2018-07-07T08:14:55.235Z,101640.88
2018-07-07T08:20:02.611Z,101634.57
2018-07-07T08:25:06.086Z,101622.80
2018-07-07T08:30:10.197Z,101632.95
2018-07-07T08:35:13.312Z,101636.39
2018-07-07T08:40:16.463Z,101634.23
2018-07-07T08:45:19.584Z,101627.92
2018-07-07T08:50:22.782Z,101616.16
2018-07-07T08:55:26.598Z,101614.34
2018-07-07T09:00:29.807Z,101612.48
2018-07-07T09:05:33.015Z,101601.66
2018-07-07T09:10:36.147Z,101607.11
2018-07-07T09:15:39.257Z,101617.92
2018-07-07T09:20:42.430Z,101606.41
2018-07-07T09:25:45.687Z,101603.91
2018-07-07T09:30:48.973Z,101598.25
2018-07-07T09:41:01.741Z,101591.80
2018-07-07T09:46:04.910Z,101586.78
2018-07-07T09:51:08.056Z,101587.91
2018-07-07T09:56:11.354Z,101590.31
2018-07-07T10:01:14.866Z,101577.89
2018-07-07T10:06:17.958Z,101570.16
2018-07-07T10:11:21.131Z,101578.29
2018-07-07T10:16:24.260Z,101577.73
2018-07-07T10:21:28.230Z,101565.86
2018-07-07T10:26:59.197Z,101583.42
2018-07-07T10:32:03.553Z,101579.28
2018-07-07T10:37:07.391Z,101586.52
2018-07-07T10:42:11.865Z,101579.48
2018-07-07T10:47:14.981Z,101575.72
2018-07-07T10:52:19.604Z,101570.13
2018-07-07T10:57:22.744Z,101575.48
2018-07-07T11:02:25.876Z,101575.83
2018-07-07T11:07:29.690Z,101574.73
2018-07-07T11:12:32.875Z,101571.22
2018-07-07T11:17:36.037Z,101561.60
2018-07-07T11:22:39.192Z,101568.60
2018-07-07T11:27:42.355Z,101562.63
2018-07-07T11:32:45.505Z,101559.13
2018-07-07T11:37:48.692Z,101562.31
2018-07-07T11:42:52.029Z,101562.77
2018-07-07T11:47:55.260Z,101547.30
2018-07-07T11:52:59.855Z,101544.39
2018-07-07T11:58:03.102Z,101537.45
2018-07-07T12:03:06.327Z,101532.17
2018-07-07T12:08:13.988Z,101526.96
2018-07-07T12:13:12.623Z,101535.50
2018-07-07T12:18:15.773Z,101523.80
2018-07-07T12:23:18.899Z,101537.03
2018-07-07T12:28:22.168Z,101517.21
2018-07-07T12:33:25.355Z,101513.81
2018-07-07T12:38:28.615Z,101516.13
2018-07-07T12:43:31.900Z,101514.67
2018-07-07T12:48:35.151Z,101499.48
2018-07-07T12:53:38.350Z,101495.63
2018-07-07T12:58:41.683Z,101492.08
2018-07-07T13:03:44.817Z,101490.45
2018-07-07T13:08:47.962Z,101487.00
2018-07-07T13:13:51.402Z,101487.73
2018-07-07T13:18:54.510Z,101492.73
2018-07-07T13:23:57.694Z,101476.88
2018-07-07T13:29:00.927Z,101489.18
2018-07-07T13:34:04.141Z,101488.66
2018-07-07T13:39:07.488Z,101489.86
2018-07-07T13:44:10.637Z,101487.94
2018-07-07T13:49:14.125Z,101486.52
2018-07-07T13:54:17.232Z,101487.95
2018-07-07T13:59:20.394Z,101488.19
2018-07-07T14:04:23.563Z,101486.28
2018-07-07T14:09:27.611Z,101490.59
2018-07-07T14:14:30.809Z,101492.31
2018-07-07T14:19:33.980Z,101486.69
2018-07-07T14:24:37.131Z,101489.23
2018-07-07T14:29:40.267Z,101485.80
2018-07-07T14:34:43.462Z,101474.70
2018-07-07T14:39:51.304Z,101476.48
2018-07-07T14:44:54.461Z,101480.27
2018-07-07T14:49:57.829Z,101489.93
2018-07-07T14:55:01.076Z,101484.97
2018-07-07T15:00:04.805Z,101483.67
2018-07-07T15:05:07.943Z,101483.08
2018-07-07T15:10:11.138Z,101473.64
2018-07-07T15:15:14.327Z,101464.02
2018-07-07T15:20:17.874Z,101474.23
2018-07-07T15:25:21.135Z,101477.45
2018-07-07T15:30:24.323Z,101461.87
2018-07-07T15:35:27.669Z,101461.42
2018-07-07T15:40:31.108Z,101442.41
2018-07-07T15:45:34.283Z,101444.61
2018-07-07T15:50:37.498Z,101438.38
2018-07-07T15:55:40.634Z,101430.09
2018-07-07T16:00:43.789Z,101433.09
2018-07-07T16:05:46.915Z,101431.83
2018-07-07T16:10:50.160Z,101427.63
2018-07-07T16:15:53.289Z,101433.17
2018-07-07T16:20:56.425Z,101431.89
2018-07-07T16:25:59.608Z,101422.64
2018-07-07T16:31:03.709Z,101427.39
2018-07-07T16:36:06.877Z,101421.80
2018-07-07T16:41:10.113Z,101425.67
2018-07-07T16:46:14.036Z,101429.48
2018-07-07T16:51:17.830Z,101428.86
2018-07-07T16:56:21.041Z,101430.36
2018-07-07T17:01:24.454Z,101432.30
2018-07-07T17:06:28.915Z,101434.45
2018-07-07T17:11:32.832Z,101428.16
2018-07-07T17:16:36.200Z,101434.80
2018-07-07T17:21:39.435Z,101446.66
2018-07-07T17:26:43.795Z,101452.19
2018-07-07T17:31:47.929Z,101444.17
2018-07-07T17:36:51.237Z,101441.03
2018-07-07T17:41:54.412Z,101447.74
2018-07-07T17:46:59.017Z,101439.50
2018-07-07T17:52:02.432Z,101454.16
2018-07-07T17:57:05.644Z,101452.12
2018-07-07T18:02:08.911Z,101456.94
2018-07-07T18:07:12.225Z,101457.92
2018-07-07T18:12:17.049Z,101455.34
2018-07-07T18:17:20.768Z,101457.73
2018-07-07T18:22:25.344Z,101467.80
2018-07-07T18:27:29.680Z,101472.97
2018-07-07T18:32:34.478Z,101471.10
2018-07-07T18:37:39.217Z,101466.16
2018-07-07T18:42:43.528Z,101462.67
2018-07-07T18:47:47.690Z,101460.33
2018-07-07T18:52:51.930Z,101465.71
2018-07-07T18:57:54.990Z,101466.92
2018-07-07T19:02:59.392Z,101464.52
2018-07-07T19:08:02.703Z,101469.27
2018-07-07T19:13:08.262Z,101476.21
2018-07-07T19:18:13.708Z,101476.30
2018-07-07T19:23:20.960Z,101480.39
2018-07-07T19:28:33.842Z,101487.80
2018-07-07T19:33:37.552Z,101489.83
2018-07-07T19:38:49.819Z,101494.98
2018-07-07T19:43:53.387Z,101495.38
2018-07-07T19:49:04.050Z,101501.34
2018-07-07T19:54:12.097Z,101497.54
2018-07-07T19:59:18.538Z,101501.09
2018-07-07T20:04:22.658Z,101501.70
2018-07-07T20:09:25.825Z,101501.13
2018-07-07T20:14:29.461Z,101508.49
2018-07-07T20:19:43.960Z,101509.77
2018-07-07T20:24:47.069Z,101507.89
2018-07-07T20:29:50.344Z,101506.88
2018-07-07T20:34:53.430Z,101507.96
2018-07-07T20:39:56.587Z,101522.02
2018-07-07T20:44:59.734Z,101523.94
2018-07-07T20:50:02.942Z,101522.33
2018-07-07T20:55:06.169Z,101527.64
2018-07-07T21:00:09.831Z,101527.33
2018-07-07T21:05:13.165Z,101537.02
2018-07-07T21:10:16.276Z,101537.32
2018-07-07T21:15:19.557Z,101539.17
2018-07-07T21:20:22.696Z,101549.38
2018-07-07T21:25:25.853Z,101550.73
2018-07-07T21:30:29.067Z,101555.80
2018-07-07T21:35:32.349Z,101558.84
2018-07-07T21:40:35.594Z,101556.55
2018-07-07T21:45:38.794Z,101571.33
2018-07-07T21:50:41.938Z,101568.48
2018-07-07T21:55:45.048Z,101576.11
2018-07-07T22:00:59.391Z,101579.27
2018-07-07T22:06:02.555Z,101583.77
2018-07-07T22:11:05.782Z,101582.07
2018-07-07T22:16:09.006Z,101577.37
2018-07-07T22:21:23.282Z,101578.79
2018-07-07T22:26:26.379Z,101585.13
2018-07-07T22:31:30.164Z,101579.78
2018-07-07T22:36:33.887Z,101580.86
2018-07-07T22:41:55.070Z,101588.47
2018-07-07T22:46:58.250Z,101590.55
2018-07-07T22:52:01.472Z,101594.05
2018-07-07T22:57:04.845Z,101588.21
2018-07-07T23:02:08.018Z,101588.56
2018-07-07T23:07:11.130Z,101589.10
2018-07-07T23:12:14.279Z,101594.95
2018-07-07T23:17:17.413Z,101588.34
2018-07-07T23:22:31.219Z,101591.84
2018-07-07T23:27:34.393Z,101595.73
2018-07-07T23:32:37.556Z,101592.75
2018-07-07T23:37:40.730Z,101584.39
2018-07-07T23:42:43.886Z,101583.90
2018-07-07T23:47:47.041Z,101578.64
2018-07-07T23:52:50.167Z,101585.85
2018-07-07T23:57:53.330Z,101574.30
